Flight Track Log - Related Links

Times and Time Zones

All times are in EDT time to prevent confusion due to time zone crossing. See the SWA2130 flight status page for this flight to view local times or setup timezone preferences in your user account.

Time Position Orientation Groundspeed Altitude Reporting Facility
EDT Latitude Longitude Course Direction KTS MPH feet Rate Location/Type
Tue 07:05:22 PM 37.6442 -122.3692 North 150 173 1,600  Level Oakland Center
Tue 07:06:24 PM 37.6947 -122.3683 North 192 221 4,300 2,923 Climbing Oakland Center
Tue 07:06:40 PM 37.7000 -122.4000 282° West 233 268 5,400 3,316 Climbing Northern Cal TRACON
Tue 07:07:40 PM 37.6667 -122.4500 230° Southwest 296 341 8,500 3,170 Climbing Northern Cal TRACON
Tue 07:08:26 PM 37.6050 -122.4469 178° South 292 336 11,000 2,692 Climbing Oakland Center
Tue 07:09:27 PM 37.5197 -122.4006 157° South 325 374 13,300 2,829 Climbing Oakland Center
Tue 07:10:29 PM 37.4444 -122.3072 135° Southeast 376 433 16,800 3,512 Climbing Oakland Center
Tue 07:11:30 PM 37.3700 -122.2061 133° Southeast 392 451 20,500 3,295 Climbing Oakland Center
Tue 07:12:31 PM 37.2922 -122.1025 133° Southeast 404 465 23,500 2,754 Climbing Oakland Center
Tue 07:13:32 PM 37.2100 -121.9942 134° Southeast 424 488 26,100 2,705 Climbing Oakland Center
Tue 07:14:33 PM 37.1075 -121.8583 133° Southeast 447 514 29,000 2,283 Climbing Oakland Center
Tue 07:16:36 PM 36.9297 -121.6253 134° Southeast 468 539 33,100 2,022 Climbing Oakland Center
Tue 07:17:37 PM 36.8389 -121.5058 134° Southeast 473 544 35,200 1,967 Climbing Oakland Center
Tue 07:18:38 PM 36.7514 -121.3903 133° Southeast 471 542 37,100 1,770 Climbing Oakland Center
Tue 07:19:39 PM 36.6614 -121.2731 134° Southeast 468 539 38,800 1,475 Climbing Oakland Center
Tue 07:20:40 PM 36.5711 -121.1558 134° Southeast 469 540 40,100 1,024 Climbing Oakland Center
Tue 07:21:42 PM 36.4811 -121.0392 134° Southeast 468 539 40,900 293 Climbing Oakland Center
Tue 07:22:43 PM 36.3931 -120.9247 134° Southeast 460 529 40,700 -639 Descending Oakland Center
Tue 07:23:44 PM 36.2864 -120.7844 133° Southeast 465 535 39,600 -836 Descending Oakland Center
Tue 07:24:45 PM 36.1953 -120.6719 135° Southeast 464 534 39,000 -295 Descending Oakland Center
Tue 07:25:46 PM 36.1061 -120.5575 134° Southeast 461 531 39,000  Level Oakland Center
Tue 07:26:48 PM 36.0164 -120.4442 134° Southeast 460 529 39,000  Level Oakland Center
Tue 07:27:49 PM 35.9278 -120.3308 134° Southeast 457 526 39,000  Level Oakland Center
Tue 07:28:50 PM 35.8394 -120.2192 134° Southeast 454 522 39,000  Level Oakland Center
Tue 07:29:51 PM 35.7481 -120.1044 134° Southeast 461 531 39,000  Level Oakland Center
Tue 07:30:52 PM 35.6561 -119.9892 134° Southeast 468 539 39,000  Level Oakland Center
Tue 07:31:53 PM 35.5511 -119.8933 143° Southeast 467 537 39,000  Level Oakland Center
Tue 07:32:55 PM 35.4456 -119.8036 145° Southeast 460 529 39,000 -146 Level Oakland Center
Tue 07:33:56 PM 35.3408 -119.7133 145° Southeast 458 527 38,700 -424 Descending Oakland Center
Tue 07:34:20 PM 35.3019 -119.6803 145° Southeast 450 518 38,400 -837 Descending Los Angeles Center
Tue 07:35:22 PM 35.2008 -119.5939 145° Southeast 442 509 37,500 -1,403 Descending Los Angeles Center
Tue 07:36:24 PM 35.0781 -119.4897 145° Southeast 446 513 35,500 -2,516 Descending Los Angeles Center
Tue 07:37:26 PM 34.9681 -119.4139 151° Southeast 458 527 32,300 -2,855 Descending Los Angeles Center
Tue 07:38:28 PM 34.8472 -119.3728 164° South 452 520 29,600 -2,613 Descending Los Angeles Center
Tue 07:39:30 PM 34.7397 -119.3039 152° Southeast 443 510 26,900 -2,468 Descending Los Angeles Center
Tue 07:40:32 PM 34.6522 -119.2042 137° Southeast 432 497 24,500 -2,274 Descending Los Angeles Center
Tue 07:41:34 PM 34.5658 -119.1153 140° Southeast 418 481 22,200 -2,419 Descending Los Angeles Center
Tue 07:42:36 PM 34.4686 -119.0036 137° Southeast 395 455 19,500 -2,419 Descending Los Angeles Center
Tue 07:43:38 PM 34.3894 -118.9161 138° Southeast 387 445 17,200 -2,226 Descending Los Angeles Center
Tue 07:44:40 PM 34.3000 -118.8597 152° Southeast 367 422 14,900 -2,129 Descending Los Angeles Center
Tue 07:45:42 PM 34.2058 -118.8253 163° South 355 409 12,800 -1,392 Descending Los Angeles Center
Tue 07:46:45 PM 34.1208 -118.7789 156° South 341 392 12,000 -1,056 Descending Los Angeles Center
Tue 07:47:47 PM 34.0808 -118.6647 113° Southeast 327 376 10,600 -1,306 Descending Los Angeles Center
Tue 07:48:49 PM 34.0458 -118.5619 112° Southeast 312 359 9,300 -1,500 Descending Los Angeles Center
Tue 07:49:51 PM 34.0153 -118.4697 112° Southeast 296 341 7,500 -1,561 Descending Los Angeles Center
Tue 07:50:52 PM 34.0167 -118.3947 89° East 293 337 6,100 -1,210 Descending Los Angeles Center
Tue 07:51:55 PM 34.0286 -118.2861 82° East 279 321 5,000 -912 Descending Los Angeles Center
Tue 07:52:57 PM 34.0386 -118.2108 81° East 243 280 4,200 -919 Descending Los Angeles Center
Tue 07:53:59 PM 34.0442 -118.1397 85° East 218 251 3,100 -1,215 Descending Los Angeles Center
Tue 07:54:16 PM 34.0333 -118.1000 108° East 229 264 2,600 -390 Descending Southern California TRACON
Tue 07:55:16 PM 33.9833 -118.1333 209° Southwest 195 224 2,600  Level Southern California TRACON
Tue 07:56:03 PM 33.9761 -118.1700 257° West 197 227 2,600  Level Los Angeles Center
Tue 07:57:05 PM 33.9694 -118.2336 263° West 193 222 2,600 -387 Level Los Angeles Center
Tue 07:58:07 PM 33.9642 -118.2956 264° West 191 220 1,800 -774 Descending Los Angeles Center
Tue 07:59:09 PM 33.9583 -118.3481 262° West 174 200 1,000 -768 Descending Los Angeles Center
Tue 08:00:12 PM 33.9531 -118.3969 263° West 137 158 200 -762 Descending Los Angeles Center
Tue 08:02:00 PM 33.9333 -118.4000 260° West  Level FlightAware Approximate

Login

Don't have an account? Register now (free) for customized features, flight alerts, and more!